sensor_id;sensor_type;location;lat;lon;timestamp;P1;durP1;ratioP1;P2;durP2;ratioP2
13269;SDS011;6703;51.994;7.570;2023-10-19T00:02:14;16.77;;;7.00;;
13269;SDS011;6703;51.994;7.570;2023-10-19T00:04:45;15.40;;;6.57;;
13269;SDS011;6703;51.994;7.570;2023-10-19T00:07:14;11.55;;;6.05;;
13269;SDS011;6703;51.994;7.570;2023-10-19T00:09:43;16.08;;;6.43;;
13269;SDS011;6703;51.994;7.570;2023-10-19T00:12:13;13.88;;;6.63;;
13269;SDS011;6703;51.994;7.570;2023-10-19T00:14:42;14.00;;;6.45;;
13269;SDS011;6703;51.994;7.570;2023-10-19T00:17:10;15.65;;;6.28;;
13269;SDS011;6703;51.994;7.570;2023-10-19T00:19:38;18.33;;;6.63;;
13269;SDS011;6703;51.994;7.570;2023-10-19T00:22:26;13.60;;;5.93;;
13269;SDS011;6703;51.994;7.570;2023-10-19T00:24:57;13.43;;;5.95;;
13269;SDS011;6703;51.994;7.570;2023-10-19T00:27:25;13.73;;;6.13;;
13269;SDS011;6703;51.994;7.570;2023-10-19T00:29:54;10.60;;;5.10;;
13269;SDS011;6703;51.994;7.570;2023-10-19T00:32:32;12.75;;;5.45;;
13269;SDS011;6703;51.994;7.570;2023-10-19T00:35:05;13.27;;;5.28;;
13269;SDS011;6703;51.994;7.570;2023-10-19T00:37:55;12.47;;;5.37;;
13269;SDS011;6703;51.994;7.570;2023-10-19T00:40:49;9.95;;;3.60;;
13269;SDS011;6703;51.994;7.570;2023-10-19T00:43:28;8.37;;;3.50;;
13269;SDS011;6703;51.994;7.570;2023-10-19T00:45:59;6.22;;;3.58;;
13269;SDS011;6703;51.994;7.570;2023-10-19T00:48:30;6.07;;;2.92;;
13269;SDS011;6703;51.994;7.570;2023-10-19T00:50:59;6.93;;;3.20;;
13269;SDS011;6703;51.994;7.570;2023-10-19T00:53:38;0.10;;;0.10;;
13269;SDS011;6703;51.994;7.570;2023-10-19T00:56:06;0.10;;;0.10;;
13269;SDS011;6703;51.994;7.570;2023-10-19T00:58:37;0.00;;;0.00;;
13269;SDS011;6703;51.994;7.570;2023-10-19T01:01:07;0.17;;;0.17;;
13269;SDS011;6703;51.994;7.570;2023-10-19T01:03:36;0.08;;;0.08;;
13269;SDS011;6703;51.994;7.570;2023-10-19T01:06:05;0.40;;;0.40;;
13269;SDS011;6703;51.994;7.570;2023-10-19T01:08:38;0.00;;;0.00;;
13269;SDS011;6703;51.994;7.570;2023-10-19T01:11:09;0.00;;;0.00;;
13269;SDS011;6703;51.994;7.570;2023-10-19T01:13:41;0.00;;;0.00;;
13269;SDS011;6703;51.994;7.570;2023-10-19T01:16:13;0.20;;;0.20;;
13269;SDS011;6703;51.994;7.570;2023-10-19T01:18:48;0.20;;;0.20;;
13269;SDS011;6703;51.994;7.570;2023-10-19T01:21:21;0.10;;;0.00;;
13269;SDS011;6703;51.994;7.570;2023-10-19T01:23:55;0.00;;;0.00;;
13269;SDS011;6703;51.994;7.570;2023-10-19T01:26:24;0.30;;;0.30;;
13269;SDS011;6703;51.994;7.570;2023-10-19T01:28:53;0.00;;;0.00;;
13269;SDS011;6703;51.994;7.570;2023-10-19T01:31:27;0.10;;;0.10;;
13269;SDS011;6703;51.994;7.570;2023-10-19T01:34:05;0.40;;;0.40;;
13269;SDS011;6703;51.994;7.570;2023-10-19T01:36:35;0.10;;;0.10;;
13269;SDS011;6703;51.994;7.570;2023-10-19T01:39:10;0.00;;;0.00;;
13269;SDS011;6703;51.994;7.570;2023-10-19T01:41:38;0.20;;;0.20;;
13269;SDS011;6703;51.994;7.570;2023-10-19T01:44:08;0.40;;;0.40;;
13269;SDS011;6703;51.994;7.570;2023-10-19T01:46:40;0.08;;;0.08;;
13269;SDS011;6703;51.994;7.570;2023-10-19T01:49:10;0.00;;;0.00;;
13269;SDS011;6703;51.994;7.570;2023-10-19T01:55:22;0.10;;;0.10;;
13269;SDS011;6703;51.994;7.570;2023-10-19T01:57:50;5.10;;;0.90;;
13269;SDS011;6703;51.994;7.570;2023-10-19T02:00:17;0.00;;;0.00;;
13269;SDS011;6703;51.994;7.570;2023-10-19T02:02:49;0.80;;;0.50;;
13269;SDS011;6703;51.994;7.570;2023-10-19T02:05:17;5.30;;;2.75;;
13269;SDS011;6703;51.994;7.570;2023-10-19T02:07:45;0.00;;;0.00;;
13269;SDS011;6703;51.994;7.570;2023-10-19T02:10:13;0.00;;;0.00;;
13269;SDS011;6703;51.994;7.570;2023-10-19T02:12:43;0.00;;;0.00;;
13269;SDS011;6703;51.994;7.570;2023-10-19T02:15:12;0.00;;;0.00;;
13269;SDS011;6703;51.994;7.570;2023-10-19T02:17:41;0.90;;;0.80;;
13269;SDS011;6703;51.994;7.570;2023-10-19T02:20:12;0.00;;;0.00;;
13269;SDS011;6703;51.994;7.570;2023-10-19T02:23:06;0.00;;;0.00;;
13269;SDS011;6703;51.994;7.570;2023-10-19T02:25:33;0.40;;;0.40;;
13269;SDS011;6703;51.994;7.570;2023-10-19T02:28:05;4.60;;;0.60;;
13269;SDS011;6703;51.994;7.570;2023-10-19T02:30:33;0.00;;;0.00;;
13269;SDS011;6703;51.994;7.570;2023-10-19T02:33:01;3.50;;;0.40;;
13269;SDS011;6703;51.994;7.570;2023-10-19T02:35:32;0.00;;;0.00;;
13269;SDS011;6703;51.994;7.570;2023-10-19T02:38:01;0.00;;;0.00;;
13269;SDS011;6703;51.994;7.570;2023-10-19T02:40:28;0.20;;;0.20;;
13269;SDS011;6703;51.994;7.570;2023-10-19T02:42:59;0.00;;;0.00;;
13269;SDS011;6703;51.994;7.570;2023-10-19T02:45:30;0.70;;;0.40;;
13269;SDS011;6703;51.994;7.570;2023-10-19T02:47:58;0.00;;;0.00;;
13269;SDS011;6703;51.994;7.570;2023-10-19T02:50:25;0.20;;;0.20;;
13269;SDS011;6703;51.994;7.570;2023-10-19T02:52:53;0.22;;;0.22;;
13269;SDS011;6703;51.994;7.570;2023-10-19T02:55:20;0.00;;;0.00;;
13269;SDS011;6703;51.994;7.570;2023-10-19T02:57:49;0.00;;;0.00;;
13269;SDS011;6703;51.994;7.570;2023-10-19T03:00:17;0.90;;;0.80;;
13269;SDS011;6703;51.994;7.570;2023-10-19T03:02:48;0.20;;;0.20;;
13269;SDS011;6703;51.994;7.570;2023-10-19T03:05:18;0.00;;;0.00;;
13269;SDS011;6703;51.994;7.570;2023-10-19T03:07:47;0.20;;;0.20;;
13269;SDS011;6703;51.994;7.570;2023-10-19T03:10:15;0.00;;;0.00;;
13269;SDS011;6703;51.994;7.570;2023-10-19T03:12:51;0.00;;;0.00;;
13269;SDS011;6703;51.994;7.570;2023-10-19T03:15:19;0.40;;;0.20;;
13269;SDS011;6703;51.994;7.570;2023-10-19T03:17:49;0.10;;;0.10;;
13269;SDS011;6703;51.994;7.570;2023-10-19T03:20:16;0.00;;;0.00;;
13269;SDS011;6703;51.994;7.570;2023-10-19T03:22:49;0.10;;;0.10;;
13269;SDS011;6703;51.994;7.570;2023-10-19T03:25:16;0.75;;;0.30;;
13269;SDS011;6703;51.994;7.570;2023-10-19T03:28:02;0.00;;;0.00;;
13269;SDS011;6703;51.994;7.570;2023-10-19T03:30:35;0.00;;;0.00;;
13269;SDS011;6703;51.994;7.570;2023-10-19T03:33:07;0.00;;;0.00;;
13269;SDS011;6703;51.994;7.570;2023-10-19T03:35:37;0.00;;;0.00;;
13269;SDS011;6703;51.994;7.570;2023-10-19T03:38:08;0.30;;;0.30;;
13269;SDS011;6703;51.994;7.570;2023-10-19T03:40:41;0.00;;;0.00;;
13269;SDS011;6703;51.994;7.570;2023-10-19T03:43:13;0.50;;;0.30;;
13269;SDS011;6703;51.994;7.570;2023-10-19T03:45:48;0.00;;;0.00;;
13269;SDS011;6703;51.994;7.570;2023-10-19T03:48:20;0.20;;;0.20;;
13269;SDS011;6703;51.994;7.570;2023-10-19T03:50:53;0.43;;;0.23;;
13269;SDS011;6703;51.994;7.570;2023-10-19T03:53:22;0.00;;;0.00;;
13269;SDS011;6703;51.994;7.570;2023-10-19T03:55:51;0.00;;;0.00;;
13269;SDS011;6703;51.994;7.570;2023-10-19T03:58:23;0.10;;;0.10;;
13269;SDS011;6703;51.994;7.570;2023-10-19T04:00:55;0.00;;;0.00;;
13269;SDS011;6703;51.994;7.570;2023-10-19T04:03:29;0.40;;;0.40;;
13269;SDS011;6703;51.994;7.570;2023-10-19T04:05:57;0.00;;;0.00;;
13269;SDS011;6703;51.994;7.570;2023-10-19T04:08:30;0.03;;;0.03;;
13269;SDS011;6703;51.994;7.570;2023-10-19T04:11:01;0.00;;;0.00;;
13269;SDS011;6703;51.994;7.570;2023-10-19T04:13:52;0.00;;;0.00;;
13269;SDS011;6703;51.994;7.570;2023-10-19T04:16:20;0.20;;;0.20;;
13269;SDS011;6703;51.994;7.570;2023-10-19T04:18:49;0.10;;;0.10;;
13269;SDS011;6703;51.994;7.570;2023-10-19T04:21:18;0.00;;;0.00;;
13269;SDS011;6703;51.994;7.570;2023-10-19T04:23:46;0.00;;;0.00;;
13269;SDS011;6703;51.994;7.570;2023-10-19T04:26:14;0.10;;;0.10;;
13269;SDS011;6703;51.994;7.570;2023-10-19T04:28:45;0.00;;;0.00;;
13269;SDS011;6703;51.994;7.570;2023-10-19T04:31:16;0.10;;;0.10;;
13269;SDS011;6703;51.994;7.570;2023-10-19T04:33:45;0.00;;;0.00;;
13269;SDS011;6703;51.994;7.570;2023-10-19T04:36:15;0.10;;;0.10;;
13269;SDS011;6703;51.994;7.570;2023-10-19T04:39:06;0.20;;;0.20;;
13269;SDS011;6703;51.994;7.570;2023-10-19T04:41:38;0.00;;;0.00;;
13269;SDS011;6703;51.994;7.570;2023-10-19T04:44:07;0.22;;;0.17;;
13269;SDS011;6703;51.994;7.570;2023-10-19T04:46:35;2.37;;;2.07;;
13269;SDS011;6703;51.994;7.570;2023-10-19T04:49:03;0.57;;;0.40;;
13269;SDS011;6703;51.994;7.570;2023-10-19T04:51:32;0.00;;;0.00;;
13269;SDS011;6703;51.994;7.570;2023-10-19T04:54:05;0.10;;;0.10;;
13269;SDS011;6703;51.994;7.570;2023-10-19T04:56:35;0.00;;;0.00;;
13269;SDS011;6703;51.994;7.570;2023-10-19T04:59:03;0.00;;;0.00;;
13269;SDS011;6703;51.994;7.570;2023-10-19T05:01:32;0.10;;;0.10;;
13269;SDS011;6703;51.994;7.570;2023-10-19T05:04:00;0.38;;;0.38;;
13269;SDS011;6703;51.994;7.570;2023-10-19T05:06:28;0.00;;;0.00;;
13269;SDS011;6703;51.994;7.570;2023-10-19T05:08:58;0.03;;;0.03;;
13269;SDS011;6703;51.994;7.570;2023-10-19T05:11:25;1.30;;;0.70;;
13269;SDS011;6703;51.994;7.570;2023-10-19T05:13:55;0.00;;;0.00;;
13269;SDS011;6703;51.994;7.570;2023-10-19T05:16:23;0.10;;;0.10;;
13269;SDS011;6703;51.994;7.570;2023-10-19T05:18:51;1.00;;;0.80;;
13269;SDS011;6703;51.994;7.570;2023-10-19T05:21:19;0.25;;;0.25;;
13269;SDS011;6703;51.994;7.570;2023-10-19T05:23:48;0.00;;;0.00;;
13269;SDS011;6703;51.994;7.570;2023-10-19T05:26:17;0.00;;;0.00;;
13269;SDS011;6703;51.994;7.570;2023-10-19T05:28:46;0.00;;;0.00;;
13269;SDS011;6703;51.994;7.570;2023-10-19T05:31:14;0.03;;;0.03;;
13269;SDS011;6703;51.994;7.570;2023-10-19T05:33:43;0.10;;;0.10;;
13269;SDS011;6703;51.994;7.570;2023-10-19T05:36:10;0.20;;;0.20;;
13269;SDS011;6703;51.994;7.570;2023-10-19T05:38:41;0.00;;;0.00;;
13269;SDS011;6703;51.994;7.570;2023-10-19T05:41:09;0.00;;;0.00;;
13269;SDS011;6703;51.994;7.570;2023-10-19T05:43:39;0.30;;;0.30;;
13269;SDS011;6703;51.994;7.570;2023-10-19T05:46:07;0.20;;;0.20;;
13269;SDS011;6703;51.994;7.570;2023-10-19T05:48:37;0.00;;;0.00;;
13269;SDS011;6703;51.994;7.570;2023-10-19T05:51:04;0.00;;;0.00;;
13269;SDS011;6703;51.994;7.570;2023-10-19T05:53:32;0.20;;;0.20;;
13269;SDS011;6703;51.994;7.570;2023-10-19T05:56:00;0.20;;;0.10;;
13269;SDS011;6703;51.994;7.570;2023-10-19T05:58:29;0.40;;;0.40;;
13269;SDS011;6703;51.994;7.570;2023-10-19T06:00:59;0.00;;;0.00;;
13269;SDS011;6703;51.994;7.570;2023-10-19T06:03:27;0.00;;;0.00;;
13269;SDS011;6703;51.994;7.570;2023-10-19T06:05:56;0.00;;;0.00;;
13269;SDS011;6703;51.994;7.570;2023-10-19T06:08:25;0.00;;;0.00;;
13269;SDS011;6703;51.994;7.570;2023-10-19T06:10:54;0.00;;;0.00;;
13269;SDS011;6703;51.994;7.570;2023-10-19T06:13:22;0.00;;;0.00;;
13269;SDS011;6703;51.994;7.570;2023-10-19T06:15:49;0.65;;;0.50;;
13269;SDS011;6703;51.994;7.570;2023-10-19T06:18:19;0.00;;;0.00;;
13269;SDS011;6703;51.994;7.570;2023-10-19T06:20:47;0.10;;;0.10;;
13269;SDS011;6703;51.994;7.570;2023-10-19T06:23:17;0.10;;;0.10;;
13269;SDS011;6703;51.994;7.570;2023-10-19T06:25:45;0.00;;;0.00;;
13269;SDS011;6703;51.994;7.570;2023-10-19T06:28:34;0.00;;;0.00;;
13269;SDS011;6703;51.994;7.570;2023-10-19T06:31:05;0.10;;;0.10;;
13269;SDS011;6703;51.994;7.570;2023-10-19T06:33:34;0.03;;;0.00;;
13269;SDS011;6703;51.994;7.570;2023-10-19T06:36:03;0.10;;;0.10;;
13269;SDS011;6703;51.994;7.570;2023-10-19T06:38:31;0.00;;;0.00;;
13269;SDS011;6703;51.994;7.570;2023-10-19T06:40:59;0.00;;;0.00;;
13269;SDS011;6703;51.994;7.570;2023-10-19T06:43:29;0.40;;;0.40;;
13269;SDS011;6703;51.994;7.570;2023-10-19T06:45:59;0.00;;;0.00;;
13269;SDS011;6703;51.994;7.570;2023-10-19T06:48:28;0.00;;;0.00;;
13269;SDS011;6703;51.994;7.570;2023-10-19T06:50:57;0.10;;;0.10;;
13269;SDS011;6703;51.994;7.570;2023-10-19T06:53:26;0.40;;;0.40;;
13269;SDS011;6703;51.994;7.570;2023-10-19T06:55:54;0.03;;;0.03;;
13269;SDS011;6703;51.994;7.570;2023-10-19T06:58:22;0.00;;;0.00;;
13269;SDS011;6703;51.994;7.570;2023-10-19T07:00:54;0.20;;;0.20;;
13269;SDS011;6703;51.994;7.570;2023-10-19T07:03:26;0.00;;;0.00;;
13269;SDS011;6703;51.994;7.570;2023-10-19T07:05:56;0.00;;;0.00;;
13269;SDS011;6703;51.994;7.570;2023-10-19T07:08:27;0.05;;;0.05;;
13269;SDS011;6703;51.994;7.570;2023-10-19T07:10:54;0.10;;;0.10;;
13269;SDS011;6703;51.994;7.570;2023-10-19T07:13:23;9.40;;;1.10;;
13269;SDS011;6703;51.994;7.570;2023-10-19T07:15:50;0.10;;;0.10;;
13269;SDS011;6703;51.994;7.570;2023-10-19T07:18:18;0.00;;;0.00;;
13269;SDS011;6703;51.994;7.570;2023-10-19T07:20:46;0.00;;;0.00;;
13269;SDS011;6703;51.994;7.570;2023-10-19T07:23:17;0.00;;;0.00;;
13269;SDS011;6703;51.994;7.570;2023-10-19T07:25:47;0.00;;;0.00;;
13269;SDS011;6703;51.994;7.570;2023-10-19T07:28:20;0.00;;;0.00;;
13269;SDS011;6703;51.994;7.570;2023-10-19T07:30:49;0.00;;;0.00;;
13269;SDS011;6703;51.994;7.570;2023-10-19T07:33:17;2.42;;;0.43;;
13269;SDS011;6703;51.994;7.570;2023-10-19T07:35:46;0.80;;;0.73;;
13269;SDS011;6703;51.994;7.570;2023-10-19T07:38:20;0.15;;;0.15;;
13269;SDS011;6703;51.994;7.570;2023-10-19T07:40:49;0.03;;;0.03;;
13269;SDS011;6703;51.994;7.570;2023-10-19T07:43:20;0.17;;;0.17;;
13269;SDS011;6703;51.994;7.570;2023-10-19T07:45:48;0.10;;;0.10;;
13269;SDS011;6703;51.994;7.570;2023-10-19T07:48:19;0.00;;;0.00;;
13269;SDS011;6703;51.994;7.570;2023-10-19T07:50:47;0.10;;;0.10;;
13269;SDS011;6703;51.994;7.570;2023-10-19T07:53:15;0.00;;;0.00;;
13269;SDS011;6703;51.994;7.570;2023-10-19T07:55:45;0.00;;;0.00;;
13269;SDS011;6703;51.994;7.570;2023-10-19T07:58:13;0.13;;;0.13;;
13269;SDS011;6703;51.994;7.570;2023-10-19T08:00:41;5.70;;;1.00;;
13269;SDS011;6703;51.994;7.570;2023-10-19T08:03:13;0.20;;;0.20;;
13269;SDS011;6703;51.994;7.570;2023-10-19T08:05:43;0.00;;;0.00;;
13269;SDS011;6703;51.994;7.570;2023-10-19T08:08:10;0.25;;;0.25;;
13269;SDS011;6703;51.994;7.570;2023-10-19T08:10:39;0.10;;;0.10;;
13269;SDS011;6703;51.994;7.570;2023-10-19T08:13:09;0.00;;;0.00;;
13269;SDS011;6703;51.994;7.570;2023-10-19T08:15:39;0.40;;;0.40;;
13269;SDS011;6703;51.994;7.570;2023-10-19T08:18:07;0.88;;;0.60;;
13269;SDS011;6703;51.994;7.570;2023-10-19T08:20:38;0.13;;;0.13;;
13269;SDS011;6703;51.994;7.570;2023-10-19T08:23:06;0.00;;;0.00;;
13269;SDS011;6703;51.994;7.570;2023-10-19T08:25:34;0.30;;;0.30;;
13269;SDS011;6703;51.994;7.570;2023-10-19T08:28:22;0.40;;;0.30;;
13269;SDS011;6703;51.994;7.570;2023-10-19T08:30:50;4.00;;;1.60;;
13269;SDS011;6703;51.994;7.570;2023-10-19T08:33:27;3.20;;;1.10;;
13269;SDS011;6703;51.994;7.570;2023-10-19T08:35:56;0.08;;;0.08;;
13269;SDS011;6703;51.994;7.570;2023-10-19T08:38:27;0.00;;;0.00;;
13269;SDS011;6703;51.994;7.570;2023-10-19T08:40:55;0.00;;;0.00;;
13269;SDS011;6703;51.994;7.570;2023-10-19T08:43:25;1.00;;;0.60;;
13269;SDS011;6703;51.994;7.570;2023-10-19T08:45:55;0.00;;;0.00;;
13269;SDS011;6703;51.994;7.570;2023-10-19T08:48:23;0.00;;;0.00;;
13269;SDS011;6703;51.994;7.570;2023-10-19T08:50:51;0.10;;;0.10;;
13269;SDS011;6703;51.994;7.570;2023-10-19T08:53:26;0.00;;;0.00;;
13269;SDS011;6703;51.994;7.570;2023-10-19T08:55:55;0.00;;;0.00;;
13269;SDS011;6703;51.994;7.570;2023-10-19T08:58:25;0.00;;;0.00;;
13269;SDS011;6703;51.994;7.570;2023-10-19T09:00:54;0.00;;;0.00;;
13269;SDS011;6703;51.994;7.570;2023-10-19T09:03:23;0.10;;;0.10;;
13269;SDS011;6703;51.994;7.570;2023-10-19T09:05:52;0.00;;;0.00;;
13269;SDS011;6703;51.994;7.570;2023-10-19T09:08:21;1.70;;;0.55;;
13269;SDS011;6703;51.994;7.570;2023-10-19T09:10:50;0.00;;;0.00;;
13269;SDS011;6703;51.994;7.570;2023-10-19T09:13:20;0.00;;;0.00;;
13269;SDS011;6703;51.994;7.570;2023-10-19T09:15:51;0.00;;;0.00;;
13269;SDS011;6703;51.994;7.570;2023-10-19T09:18:23;0.00;;;0.00;;
13269;SDS011;6703;51.994;7.570;2023-10-19T09:20:55;0.00;;;0.00;;
13269;SDS011;6703;51.994;7.570;2023-10-19T09:23:29;0.03;;;0.03;;
13269;SDS011;6703;51.994;7.570;2023-10-19T09:25:58;0.00;;;0.00;;
13269;SDS011;6703;51.994;7.570;2023-10-19T09:28:29;0.00;;;0.00;;
13269;SDS011;6703;51.994;7.570;2023-10-19T09:31:02;0.40;;;0.30;;
13269;SDS011;6703;51.994;7.570;2023-10-19T09:33:31;0.00;;;0.00;;
13269;SDS011;6703;51.994;7.570;2023-10-19T09:36:00;0.00;;;0.00;;
13269;SDS011;6703;51.994;7.570;2023-10-19T09:38:30;0.00;;;0.00;;
13269;SDS011;6703;51.994;7.570;2023-10-19T09:40:59;0.00;;;0.00;;
13269;SDS011;6703;51.994;7.570;2023-10-19T09:43:30;0.15;;;0.15;;
13269;SDS011;6703;51.994;7.570;2023-10-19T09:46:04;0.10;;;0.10;;
13269;SDS011;6703;51.994;7.570;2023-10-19T09:48:36;0.10;;;0.10;;
13269;SDS011;6703;51.994;7.570;2023-10-19T09:51:08;0.50;;;0.50;;
13269;SDS011;6703;51.994;7.570;2023-10-19T09:53:40;0.00;;;0.00;;
13269;SDS011;6703;51.994;7.570;2023-10-19T09:56:10;0.00;;;0.00;;
13269;SDS011;6703;51.994;7.570;2023-10-19T09:58:41;0.00;;;0.00;;
13269;SDS011;6703;51.994;7.570;2023-10-19T10:01:14;0.00;;;0.00;;
13269;SDS011;6703;51.994;7.570;2023-10-19T10:03:43;0.00;;;0.00;;
13269;SDS011;6703;51.994;7.570;2023-10-19T10:06:12;1.00;;;0.50;;
13269;SDS011;6703;51.994;7.570;2023-10-19T10:08:42;0.00;;;0.00;;
13269;SDS011;6703;51.994;7.570;2023-10-19T10:11:16;0.00;;;0.00;;
13269;SDS011;6703;51.994;7.570;2023-10-19T10:13:45;0.00;;;0.00;;
13269;SDS011;6703;51.994;7.570;2023-10-19T10:16:19;0.00;;;0.00;;
13269;SDS011;6703;51.994;7.570;2023-10-19T10:18:49;0.70;;;0.50;;
13269;SDS011;6703;51.994;7.570;2023-10-19T10:21:18;0.00;;;0.00;;
13269;SDS011;6703;51.994;7.570;2023-10-19T10:23:48;0.00;;;0.00;;
13269;SDS011;6703;51.994;7.570;2023-10-19T10:26:17;0.00;;;0.00;;
13269;SDS011;6703;51.994;7.570;2023-10-19T10:28:46;0.40;;;0.40;;
13269;SDS011;6703;51.994;7.570;2023-10-19T10:31:21;0.00;;;0.00;;
13269;SDS011;6703;51.994;7.570;2023-10-19T10:33:50;0.00;;;0.00;;
13269;SDS011;6703;51.994;7.570;2023-10-19T10:36:21;0.00;;;0.00;;
13269;SDS011;6703;51.994;7.570;2023-10-19T10:38:49;0.00;;;0.00;;
13269;SDS011;6703;51.994;7.570;2023-10-19T10:41:21;0.00;;;0.00;;
13269;SDS011;6703;51.994;7.570;2023-10-19T10:43:52;0.00;;;0.00;;
13269;SDS011;6703;51.994;7.570;2023-10-19T10:46:23;0.00;;;0.00;;
13269;SDS011;6703;51.994;7.570;2023-10-19T10:48:53;0.30;;;0.22;;
13269;SDS011;6703;51.994;7.570;2023-10-19T10:51:21;0.00;;;0.00;;
13269;SDS011;6703;51.994;7.570;2023-10-19T10:53:51;0.40;;;0.13;;
13269;SDS011;6703;51.994;7.570;2023-10-19T10:56:20;0.00;;;0.00;;
13269;SDS011;6703;51.994;7.570;2023-10-19T10:58:49;0.00;;;0.00;;
13269;SDS011;6703;51.994;7.570;2023-10-19T11:01:28;0.00;;;0.00;;
13269;SDS011;6703;51.994;7.570;2023-10-19T11:04:08;0.40;;;0.40;;
13269;SDS011;6703;51.994;7.570;2023-10-19T11:06:45;0.00;;;0.00;;
13269;SDS011;6703;51.994;7.570;2023-10-19T11:09:15;3.80;;;0.27;;
13269;SDS011;6703;51.994;7.570;2023-10-19T11:11:46;0.20;;;0.20;;
13269;SDS011;6703;51.994;7.570;2023-10-19T11:14:15;0.00;;;0.00;;
13269;SDS011;6703;51.994;7.570;2023-10-19T11:16:44;0.50;;;0.50;;
13269;SDS011;6703;51.994;7.570;2023-10-19T11:19:12;0.00;;;0.00;;
13269;SDS011;6703;51.994;7.570;2023-10-19T11:21:51;0.00;;;0.00;;
13269;SDS011;6703;51.994;7.570;2023-10-19T11:24:24;0.00;;;0.00;;
13269;SDS011;6703;51.994;7.570;2023-10-19T11:26:53;0.00;;;0.00;;
13269;SDS011;6703;51.994;7.570;2023-10-19T11:29:21;0.00;;;0.00;;
13269;SDS011;6703;51.994;7.570;2023-10-19T11:31:59;0.00;;;0.00;;
13269;SDS011;6703;51.994;7.570;2023-10-19T11:34:28;0.00;;;0.00;;
13269;SDS011;6703;51.994;7.570;2023-10-19T11:36:58;0.00;;;0.00;;
13269;SDS011;6703;51.994;7.570;2023-10-19T11:39:26;1.40;;;0.70;;
13269;SDS011;6703;51.994;7.570;2023-10-19T11:41:55;0.00;;;0.00;;
13269;SDS011;6703;51.994;7.570;2023-10-19T11:44:23;0.00;;;0.00;;
13269;SDS011;6703;51.994;7.570;2023-10-19T11:46:52;0.00;;;0.00;;
13269;SDS011;6703;51.994;7.570;2023-10-19T11:49:21;0.00;;;0.00;;
13269;SDS011;6703;51.994;7.570;2023-10-19T11:51:52;0.10;;;0.10;;
13269;SDS011;6703;51.994;7.570;2023-10-19T11:54:19;0.00;;;0.00;;
13269;SDS011;6703;51.994;7.570;2023-10-19T11:56:48;2.20;;;1.00;;
13269;SDS011;6703;51.994;7.570;2023-10-19T11:59:16;0.00;;;0.00;;
13269;SDS011;6703;51.994;7.570;2023-10-19T12:01:44;0.00;;;0.00;;
13269;SDS011;6703;51.994;7.570;2023-10-19T12:04:11;4.90;;;1.50;;
13269;SDS011;6703;51.994;7.570;2023-10-19T12:06:41;2.20;;;1.13;;
13269;SDS011;6703;51.994;7.570;2023-10-19T12:09:09;0.00;;;0.00;;
13269;SDS011;6703;51.994;7.570;2023-10-19T12:11:42;0.00;;;0.00;;
13269;SDS011;6703;51.994;7.570;2023-10-19T12:14:14;0.00;;;0.00;;
13269;SDS011;6703;51.994;7.570;2023-10-19T12:16:51;1.60;;;1.30;;
13269;SDS011;6703;51.994;7.570;2023-10-19T12:19:24;0.00;;;0.00;;
13269;SDS011;6703;51.994;7.570;2023-10-19T12:21:53;0.00;;;0.00;;
13269;SDS011;6703;51.994;7.570;2023-10-19T12:24:21;0.00;;;0.00;;
13269;SDS011;6703;51.994;7.570;2023-10-19T12:26:49;0.00;;;0.00;;
13269;SDS011;6703;51.994;7.570;2023-10-19T12:29:17;0.00;;;0.00;;
13269;SDS011;6703;51.994;7.570;2023-10-19T12:31:48;0.00;;;0.00;;
13269;SDS011;6703;51.994;7.570;2023-10-19T12:34:16;0.00;;;0.00;;
13269;SDS011;6703;51.994;7.570;2023-10-19T12:36:44;0.00;;;0.00;;
13269;SDS011;6703;51.994;7.570;2023-10-19T12:39:14;0.00;;;0.00;;
13269;SDS011;6703;51.994;7.570;2023-10-19T12:42:05;0.05;;;0.05;;
13269;SDS011;6703;51.994;7.570;2023-10-19T12:44:34;0.00;;;0.00;;
13269;SDS011;6703;51.994;7.570;2023-10-19T12:47:05;0.00;;;0.00;;
13269;SDS011;6703;51.994;7.570;2023-10-19T12:49:36;0.00;;;0.00;;
13269;SDS011;6703;51.994;7.570;2023-10-19T12:52:04;0.00;;;0.00;;
13269;SDS011;6703;51.994;7.570;2023-10-19T12:54:34;0.00;;;0.00;;
13269;SDS011;6703;51.994;7.570;2023-10-19T12:57:03;0.00;;;0.00;;
13269;SDS011;6703;51.994;7.570;2023-10-19T12:59:34;0.00;;;0.00;;
13269;SDS011;6703;51.994;7.570;2023-10-19T13:02:04;0.30;;;0.20;;
13269;SDS011;6703;51.994;7.570;2023-10-19T13:04:35;0.00;;;0.00;;
13269;SDS011;6703;51.994;7.570;2023-10-19T13:07:03;0.00;;;0.00;;
13269;SDS011;6703;51.994;7.570;2023-10-19T13:09:32;0.00;;;0.00;;
13269;SDS011;6703;51.994;7.570;2023-10-19T13:12:04;0.20;;;0.20;;
13269;SDS011;6703;51.994;7.570;2023-10-19T13:14:35;0.00;;;0.00;;
13269;SDS011;6703;51.994;7.570;2023-10-19T13:17:02;0.00;;;0.00;;
13269;SDS011;6703;51.994;7.570;2023-10-19T13:19:30;0.00;;;0.00;;
13269;SDS011;6703;51.994;7.570;2023-10-19T13:21:59;0.00;;;0.00;;
13269;SDS011;6703;51.994;7.570;2023-10-19T13:24:31;0.00;;;0.00;;
13269;SDS011;6703;51.994;7.570;2023-10-19T13:27:09;0.00;;;0.00;;
13269;SDS011;6703;51.994;7.570;2023-10-19T13:29:36;0.03;;;0.03;;
13269;SDS011;6703;51.994;7.570;2023-10-19T13:32:08;0.00;;;0.00;;
13269;SDS011;6703;51.994;7.570;2023-10-19T13:34:37;0.00;;;0.00;;
13269;SDS011;6703;51.994;7.570;2023-10-19T13:37:07;0.00;;;0.00;;
13269;SDS011;6703;51.994;7.570;2023-10-19T13:39:35;0.00;;;0.00;;
13269;SDS011;6703;51.994;7.570;2023-10-19T13:42:03;0.00;;;0.00;;
13269;SDS011;6703;51.994;7.570;2023-10-19T13:44:34;0.00;;;0.00;;
13269;SDS011;6703;51.994;7.570;2023-10-19T13:47:01;0.00;;;0.00;;
13269;SDS011;6703;51.994;7.570;2023-10-19T13:49:31;0.00;;;0.00;;
13269;SDS011;6703;51.994;7.570;2023-10-19T13:52:00;0.00;;;0.00;;
13269;SDS011;6703;51.994;7.570;2023-10-19T13:54:30;0.00;;;0.00;;
13269;SDS011;6703;51.994;7.570;2023-10-19T13:56:58;0.00;;;0.00;;
13269;SDS011;6703;51.994;7.570;2023-10-19T13:59:27;0.00;;;0.00;;
13269;SDS011;6703;51.994;7.570;2023-10-19T14:01:57;0.00;;;0.00;;
13269;SDS011;6703;51.994;7.570;2023-10-19T14:04:25;0.00;;;0.00;;
13269;SDS011;6703;51.994;7.570;2023-10-19T14:06:54;0.00;;;0.00;;
13269;SDS011;6703;51.994;7.570;2023-10-19T14:09:23;0.00;;;0.00;;
13269;SDS011;6703;51.994;7.570;2023-10-19T14:11:53;0.00;;;0.00;;
13269;SDS011;6703;51.994;7.570;2023-10-19T14:14:21;0.00;;;0.00;;
13269;SDS011;6703;51.994;7.570;2023-10-19T14:16:49;0.00;;;0.00;;
13269;SDS011;6703;51.994;7.570;2023-10-19T14:19:19;0.00;;;0.00;;
13269;SDS011;6703;51.994;7.570;2023-10-19T14:21:47;0.00;;;0.00;;
13269;SDS011;6703;51.994;7.570;2023-10-19T14:24:15;1.10;;;0.60;;
13269;SDS011;6703;51.994;7.570;2023-10-19T14:26:44;0.00;;;0.00;;
13269;SDS011;6703;51.994;7.570;2023-10-19T14:29:13;1.70;;;0.80;;
13269;SDS011;6703;51.994;7.570;2023-10-19T14:31:41;0.00;;;0.00;;
13269;SDS011;6703;51.994;7.570;2023-10-19T14:34:10;4.10;;;0.70;;
13269;SDS011;6703;51.994;7.570;2023-10-19T14:36:39;0.00;;;0.00;;
13269;SDS011;6703;51.994;7.570;2023-10-19T14:39:07;0.00;;;0.00;;
13269;SDS011;6703;51.994;7.570;2023-10-19T14:41:36;0.00;;;0.00;;
13269;SDS011;6703;51.994;7.570;2023-10-19T14:44:04;0.00;;;0.00;;
13269;SDS011;6703;51.994;7.570;2023-10-19T14:46:33;0.10;;;0.10;;
13269;SDS011;6703;51.994;7.570;2023-10-19T14:49:01;0.10;;;0.10;;
13269;SDS011;6703;51.994;7.570;2023-10-19T14:51:30;0.60;;;0.50;;
13269;SDS011;6703;51.994;7.570;2023-10-19T14:54:00;2.50;;;0.80;;
13269;SDS011;6703;51.994;7.570;2023-10-19T14:56:27;0.10;;;0.10;;
13269;SDS011;6703;51.994;7.570;2023-10-19T14:58:55;0.00;;;0.00;;
13269;SDS011;6703;51.994;7.570;2023-10-19T15:01:25;0.00;;;0.00;;
13269;SDS011;6703;51.994;7.570;2023-10-19T15:03:53;0.00;;;0.00;;
13269;SDS011;6703;51.994;7.570;2023-10-19T15:06:21;0.00;;;0.00;;
13269;SDS011;6703;51.994;7.570;2023-10-19T15:08:49;1.30;;;0.90;;
13269;SDS011;6703;51.994;7.570;2023-10-19T15:11:18;0.00;;;0.00;;
13269;SDS011;6703;51.994;7.570;2023-10-19T15:13:49;0.20;;;0.20;;
13269;SDS011;6703;51.994;7.570;2023-10-19T15:16:17;0.00;;;0.00;;
13269;SDS011;6703;51.994;7.570;2023-10-19T15:18:45;0.30;;;0.30;;
13269;SDS011;6703;51.994;7.570;2023-10-19T15:21:14;0.30;;;0.30;;
13269;SDS011;6703;51.994;7.570;2023-10-19T15:23:44;0.00;;;0.00;;